createdAt,value
2023-02-15T00:00:18.684Z,2.49
2023-02-15T00:02:46.902Z,2.46
2023-02-15T00:05:15.184Z,2.50
2023-02-15T00:07:43.412Z,2.62
2023-02-15T00:10:13.237Z,2.82
2023-02-15T00:12:41.474Z,2.89
2023-02-15T00:15:12.418Z,2.91
2023-02-15T00:17:40.604Z,2.91
2023-02-15T00:20:09.749Z,2.90
2023-02-15T00:22:38.017Z,2.87
2023-02-15T00:25:06.942Z,2.91
2023-02-15T00:27:35.762Z,2.91
2023-02-15T00:30:05.113Z,2.87
2023-02-15T00:32:34.866Z,2.87
2023-02-15T00:35:04.081Z,2.84
2023-02-15T00:37:32.449Z,2.83
2023-02-15T00:40:00.664Z,2.76
2023-02-15T00:42:29.037Z,2.72
2023-02-15T00:44:57.252Z,2.68
2023-02-15T00:47:26.487Z,2.67
2023-02-15T00:49:56.117Z,2.62
2023-02-15T00:52:24.393Z,2.66
2023-02-15T00:54:52.567Z,2.79
2023-02-15T00:57:20.783Z,2.67
2023-02-15T00:59:49.479Z,2.61
2023-02-15T01:02:17.698Z,2.51
2023-02-15T01:04:48.588Z,2.46
2023-02-15T01:07:19.422Z,2.39
2023-02-15T01:09:47.676Z,2.30
2023-02-15T01:12:16.184Z,2.25
2023-02-15T01:14:44.445Z,2.20
2023-02-15T01:17:12.659Z,2.17
2023-02-15T01:19:40.954Z,2.11
2023-02-15T01:22:09.270Z,2.10
2023-02-15T01:24:39.183Z,2.01
2023-02-15T01:27:07.382Z,2.03
2023-02-15T01:29:35.606Z,2.06
2023-02-15T01:32:04.196Z,2.10
2023-02-15T01:34:32.779Z,2.11
2023-02-15T01:37:01.105Z,2.22
2023-02-15T01:39:29.361Z,2.10
2023-02-15T01:41:59.746Z,2.05
2023-02-15T01:44:50.441Z,2.01
2023-02-15T01:47:22.420Z,2.00
2023-02-15T01:49:54.313Z,1.98
2023-02-15T01:52:22.728Z,1.98
2023-02-15T01:54:52.538Z,1.94
2023-02-15T01:57:26.140Z,1.94
2023-02-15T02:00:00.372Z,1.92
2023-02-15T02:02:29.876Z,1.90
2023-02-15T02:05:04.045Z,1.90
2023-02-15T02:07:36.943Z,1.94
2023-02-15T02:10:06.683Z,1.94
2023-02-15T02:12:38.045Z,1.93
2023-02-15T02:15:07.572Z,1.96
2023-02-15T02:17:47.693Z,1.93
2023-02-15T02:20:30.972Z,1.93
2023-02-15T02:23:18.145Z,1.93
2023-02-15T02:26:07.125Z,1.86
2023-02-15T02:29:01.272Z,1.86
2023-02-15T02:31:45.624Z,1.80
2023-02-15T02:34:19.305Z,1.76
2023-02-15T02:36:54.756Z,1.77
2023-02-15T02:39:33.454Z,1.72
2023-02-15T02:42:11.781Z,1.71
2023-02-15T02:44:45.400Z,1.69
2023-02-15T02:47:18.503Z,1.67
2023-02-15T02:49:48.109Z,1.68
2023-02-15T02:52:49.962Z,1.78
2023-02-15T02:55:22.879Z,1.92
2023-02-15T02:57:56.147Z,2.00
2023-02-15T03:00:26.674Z,2.03
2023-02-15T03:03:06.095Z,1.93
2023-02-15T03:05:40.231Z,1.86
2023-02-15T03:08:10.815Z,1.82
2023-02-15T03:10:41.297Z,1.80
2023-02-15T03:13:10.811Z,1.79
2023-02-15T03:15:59.125Z,1.80
2023-02-15T03:18:32.977Z,1.79
2023-02-15T03:21:04.856Z,1.81
2023-02-15T03:23:35.031Z,2.01
2023-02-15T03:26:07.212Z,2.28
2023-02-15T03:28:42.888Z,2.31
2023-02-15T03:31:14.157Z,2.31
2023-02-15T03:33:47.706Z,2.38
2023-02-15T03:36:24.343Z,2.44
2023-02-15T03:39:00.815Z,2.42
2023-02-15T03:41:34.249Z,2.34
2023-02-15T03:44:08.794Z,2.41
2023-02-15T03:46:44.634Z,2.37
2023-02-15T03:49:17.614Z,2.38
2023-02-15T03:51:50.057Z,2.28
2023-02-15T03:54:37.285Z,2.15
2023-02-15T03:57:23.810Z,2.01
2023-02-15T04:00:09.214Z,1.94
2023-02-15T04:02:48.848Z,1.85
2023-02-15T04:05:17.308Z,1.79
2023-02-15T04:07:46.976Z,1.80
2023-02-15T04:10:33.009Z,1.86
2023-02-15T04:13:01.240Z,1.83
2023-02-15T04:15:47.072Z,1.83
2023-02-15T04:18:16.598Z,1.98
2023-02-15T04:21:03.823Z,1.99
2023-02-15T04:23:50.970Z,1.95
2023-02-15T04:26:19.433Z,1.92
2023-02-15T04:28:47.657Z,1.87
2023-02-15T04:31:15.996Z,1.84
2023-02-15T04:33:44.780Z,1.82
2023-02-15T04:36:13.072Z,1.75
2023-02-15T04:38:42.675Z,1.80
2023-02-15T04:41:12.392Z,1.87
2023-02-15T04:43:40.928Z,1.98
2023-02-15T04:46:09.208Z,2.06
2023-02-15T04:48:37.822Z,2.07
2023-02-15T04:51:08.488Z,2.01
2023-02-15T04:53:36.730Z,1.98
2023-02-15T04:56:06.570Z,1.82
2023-02-15T04:58:36.072Z,1.80
2023-02-15T05:01:04.673Z,1.87
2023-02-15T05:03:32.935Z,1.86
2023-02-15T05:06:01.389Z,1.94
2023-02-15T05:08:29.800Z,2.00
2023-02-15T05:10:58.322Z,2.13
2023-02-15T05:13:27.999Z,2.06
2023-02-15T05:15:56.387Z,2.08
2023-02-15T05:18:24.608Z,2.08
2023-02-15T05:20:53.218Z,2.02
2023-02-15T05:23:21.525Z,1.92
2023-02-15T05:26:13.588Z,1.78
2023-02-15T05:28:43.201Z,1.66
2023-02-15T05:31:14.503Z,1.58
2023-02-15T05:33:43.497Z,1.57
2023-02-15T05:36:11.990Z,1.49
2023-02-15T05:38:40.955Z,1.47
2023-02-15T05:41:10.589Z,1.49
2023-02-15T05:43:39.953Z,1.45
2023-02-15T05:46:10.325Z,1.39
2023-02-15T05:48:39.090Z,1.33
2023-02-15T05:51:09.949Z,1.29
2023-02-15T05:53:40.108Z,1.24
2023-02-15T05:56:09.865Z,1.21
2023-02-15T05:58:42.261Z,1.22
2023-02-15T06:01:15.652Z,1.21
2023-02-15T06:03:43.976Z,1.35
2023-02-15T06:06:12.604Z,1.41
2023-02-15T06:08:40.820Z,1.57
2023-02-15T06:11:09.488Z,1.82
2023-02-15T06:13:38.982Z,1.94
2023-02-15T06:16:08.000Z,2.03
2023-02-15T06:18:37.684Z,2.05
2023-02-15T06:21:05.931Z,2.08
2023-02-15T06:23:34.163Z,2.08
2023-02-15T06:26:02.672Z,2.08
2023-02-15T06:28:31.049Z,2.10
2023-02-15T06:30:59.407Z,2.06
2023-02-15T06:33:27.705Z,2.11
2023-02-15T06:35:57.502Z,2.13
2023-02-15T06:38:25.772Z,2.11
2023-02-15T06:40:54.038Z,2.12
2023-02-15T06:43:22.338Z,2.12
2023-02-15T06:45:50.571Z,2.15
2023-02-15T06:48:18.811Z,2.16
2023-02-15T06:50:47.111Z,2.24
2023-02-15T06:53:16.781Z,2.21
2023-02-15T06:55:45.101Z,2.24
2023-02-15T06:58:13.357Z,2.29
2023-02-15T07:00:41.601Z,2.22
2023-02-15T07:03:10.215Z,2.29
2023-02-15T07:05:38.821Z,2.25
2023-02-15T07:08:07.065Z,2.24
2023-02-15T07:10:36.718Z,2.25
2023-02-15T07:13:04.082Z,2.27
2023-02-15T07:15:32.304Z,2.34
2023-02-15T07:18:00.664Z,2.32
2023-02-15T07:20:29.666Z,2.24
2023-02-15T07:22:57.906Z,2.22
2023-02-15T07:25:26.130Z,2.28
2023-02-15T07:27:59.534Z,2.36
2023-02-15T07:30:27.948Z,2.44
2023-02-15T07:33:15.150Z,2.49
2023-02-15T07:35:49.741Z,2.56
2023-02-15T07:38:18.209Z,2.58
2023-02-15T07:40:47.204Z,2.55
2023-02-15T07:43:16.827Z,2.64
2023-02-15T07:45:45.668Z,2.65
2023-02-15T07:48:13.877Z,2.68
2023-02-15T07:50:42.288Z,2.75
2023-02-15T07:53:10.595Z,2.80
2023-02-15T07:55:39.098Z,2.85
2023-02-15T07:58:07.345Z,2.87
2023-02-15T08:00:57.270Z,2.94
2023-02-15T08:03:27.744Z,3.05
2023-02-15T08:05:59.527Z,3.14
2023-02-15T08:08:34.368Z,3.26
2023-02-15T08:11:21.513Z,3.32
2023-02-15T08:13:57.561Z,3.35
2023-02-15T08:16:28.860Z,3.45
2023-02-15T08:18:58.377Z,3.49
2023-02-15T08:21:29.055Z,3.54
2023-02-15T08:23:58.014Z,3.60
2023-02-15T08:26:27.650Z,3.68
2023-02-15T08:28:56.249Z,3.78
2023-02-15T08:31:24.847Z,3.90
2023-02-15T08:33:56.372Z,3.98
2023-02-15T08:36:26.481Z,4.14
2023-02-15T08:38:55.151Z,4.26
2023-02-15T08:41:25.611Z,4.35
2023-02-15T08:43:55.744Z,4.45
2023-02-15T08:46:24.853Z,4.53
2023-02-15T08:48:54.932Z,4.63
2023-02-15T08:51:25.000Z,4.68
2023-02-15T08:53:55.180Z,4.79
2023-02-15T08:56:26.888Z,4.75
2023-02-15T08:58:55.677Z,4.87
2023-02-15T09:01:31.010Z,5.06
2023-02-15T09:04:02.000Z,5.18
2023-02-15T09:06:30.982Z,5.30
2023-02-15T09:08:59.461Z,5.37
2023-02-15T09:11:29.676Z,5.53
2023-02-15T09:14:00.136Z,5.71
2023-02-15T09:16:30.174Z,5.84
2023-02-15T09:19:02.118Z,5.95
2023-02-15T09:21:31.196Z,6.16
2023-02-15T09:24:01.692Z,6.41
2023-02-15T09:26:31.798Z,6.44
2023-02-15T09:29:02.466Z,6.58
2023-02-15T09:31:32.256Z,6.72
2023-02-15T09:34:03.167Z,6.55
2023-02-15T09:36:34.029Z,6.57
2023-02-15T09:39:08.758Z,6.56
2023-02-15T09:42:05.228Z,6.61
2023-02-15T09:44:52.413Z,6.55
2023-02-15T09:47:47.178Z,6.74
2023-02-15T09:50:22.864Z,6.97
2023-02-15T09:53:11.672Z,7.02
2023-02-15T09:55:53.395Z,7.18
2023-02-15T09:58:32.022Z,7.34
2023-02-15T10:01:06.258Z,7.46
2023-02-15T10:03:46.318Z,7.43
2023-02-15T10:06:34.804Z,7.31
2023-02-15T10:09:28.340Z,7.35
2023-02-15T10:12:12.082Z,7.47
2023-02-15T10:14:52.672Z,7.48
2023-02-15T10:17:32.872Z,7.53
2023-02-15T10:20:19.060Z,7.74
2023-02-15T10:23:04.530Z,7.92
2023-02-15T10:25:43.160Z,8.07
2023-02-15T10:28:22.176Z,8.37
2023-02-15T10:30:52.660Z,8.56
2023-02-15T10:33:36.125Z,8.51
2023-02-15T10:36:19.139Z,8.38
2023-02-15T10:38:54.410Z,8.55
2023-02-15T10:41:37.873Z,8.64
2023-02-15T10:44:21.741Z,8.81
2023-02-15T10:47:19.344Z,9.09
2023-02-15T10:50:12.129Z,9.20
2023-02-15T10:52:58.186Z,9.46
2023-02-15T10:55:41.915Z,9.65
2023-02-15T10:58:19.157Z,9.62
2023-02-15T11:00:52.024Z,9.89
2023-02-15T11:03:46.135Z,9.79
2023-02-15T11:06:17.927Z,9.78
2023-02-15T11:08:49.637Z,10.10
2023-02-15T11:11:28.275Z,10.15
2023-02-15T11:14:01.554Z,10.07
2023-02-15T11:16:34.347Z,10.09
2023-02-15T11:19:08.958Z,10.21
2023-02-15T11:21:41.569Z,10.13
2023-02-15T11:24:15.142Z,10.30
2023-02-15T11:26:48.280Z,10.42
2023-02-15T11:29:26.401Z,10.46
2023-02-15T11:31:57.586Z,10.43
2023-02-15T11:34:38.528Z,10.40
2023-02-15T11:37:10.914Z,10.31
2023-02-15T11:39:39.737Z,10.46
2023-02-15T11:42:15.479Z,10.51
2023-02-15T11:44:55.096Z,10.71
2023-02-15T11:47:23.376Z,10.93
2023-02-15T11:49:51.623Z,10.92
2023-02-15T11:52:20.721Z,10.99
2023-02-15T11:54:52.166Z,10.94
2023-02-15T11:57:28.575Z,10.88
2023-02-15T12:00:02.420Z,10.88
2023-02-15T12:02:39.484Z,10.92
2023-02-15T12:05:15.185Z,10.88
2023-02-15T12:07:54.132Z,11.02
2023-02-15T12:10:26.292Z,11.30
2023-02-15T12:13:12.228Z,11.57
2023-02-15T12:15:45.647Z,11.58
2023-02-15T12:18:23.348Z,11.55
2023-02-15T12:20:52.190Z,11.53
2023-02-15T12:23:21.798Z,11.70
2023-02-15T12:25:55.669Z,11.91
2023-02-15T12:28:29.057Z,11.84
2023-02-15T12:31:00.699Z,11.54
2023-02-15T12:33:32.385Z,11.66
2023-02-15T12:36:06.504Z,11.77
2023-02-15T12:38:35.468Z,11.85
2023-02-15T12:41:22.064Z,11.90
2023-02-15T12:44:06.211Z,11.78
2023-02-15T12:46:38.280Z,11.76
2023-02-15T12:49:20.470Z,11.87
2023-02-15T12:51:51.441Z,11.76
2023-02-15T12:54:33.211Z,11.59
2023-02-15T12:57:02.362Z,11.74
2023-02-15T12:59:50.648Z,11.74
2023-02-15T13:02:27.271Z,11.77
2023-02-15T13:04:57.550Z,11.64
2023-02-15T13:07:31.890Z,11.70
2023-02-15T13:10:06.939Z,11.53
2023-02-15T13:12:35.309Z,11.62
2023-02-15T13:15:06.448Z,11.75
2023-02-15T13:17:35.743Z,11.67
2023-02-15T13:20:10.773Z,11.57
2023-02-15T13:22:49.099Z,11.60
2023-02-15T13:25:22.062Z,11.73
2023-02-15T13:27:54.606Z,11.78
2023-02-15T13:30:30.047Z,11.84
2023-02-15T13:33:04.376Z,11.83
2023-02-15T13:35:43.232Z,11.92
2023-02-15T13:38:32.805Z,11.86
2023-02-15T13:41:05.249Z,11.76
2023-02-15T13:43:47.839Z,12.03
2023-02-15T13:46:26.095Z,12.15
2023-02-15T13:49:04.489Z,12.18
2023-02-15T13:51:42.633Z,12.34
2023-02-15T13:54:38.691Z,12.33
2023-02-15T13:57:35.290Z,12.52
2023-02-15T14:00:14.809Z,12.51
2023-02-15T14:03:14.479Z,12.41
2023-02-15T14:05:59.593Z,12.19
2023-02-15T14:08:42.227Z,12.12
2023-02-15T14:11:18.160Z,12.18
2023-02-15T14:14:17.582Z,12.18
2023-02-15T14:17:06.763Z,12.23
2023-02-15T14:19:50.921Z,12.29
2023-02-15T14:22:28.038Z,12.25
2023-02-15T14:25:14.502Z,12.20
2023-02-15T14:27:55.210Z,12.35
2023-02-15T14:30:27.631Z,12.34
2023-02-15T14:32:59.292Z,12.33
2023-02-15T14:35:31.327Z,12.38
2023-02-15T14:38:08.720Z,12.35
2023-02-15T14:41:03.619Z,12.29
2023-02-15T14:43:45.834Z,12.45
2023-02-15T14:46:23.374Z,12.34
2023-02-15T14:48:54.195Z,12.27
2023-02-15T14:51:57.658Z,12.23
2023-02-15T14:55:01.605Z,12.13
2023-02-15T14:57:35.754Z,12.02
2023-02-15T15:00:40.173Z,11.94
2023-02-15T15:03:25.315Z,11.92
2023-02-15T15:05:55.863Z,11.92
2023-02-15T15:08:30.215Z,11.99
2023-02-15T15:11:43.429Z,12.01
2023-02-15T15:14:33.684Z,11.89
2023-02-15T15:17:04.806Z,11.77
2023-02-15T15:20:14.445Z,11.81
2023-02-15T15:22:46.179Z,11.66
2023-02-15T15:25:45.790Z,11.63
2023-02-15T15:28:47.076Z,11.49
2023-02-15T15:31:22.110Z,11.38
2023-02-15T15:34:22.953Z,11.37
2023-02-15T15:37:37.438Z,11.28
2023-02-15T15:40:42.674Z,11.23
2023-02-15T15:43:42.747Z,11.01
2023-02-15T15:46:44.515Z,10.92
2023-02-15T15:49:17.224Z,10.80
2023-02-15T15:52:16.129Z,10.66
2023-02-15T15:54:45.439Z,10.55
2023-02-15T15:57:24.174Z,10.55
2023-02-15T15:59:52.788Z,10.53
2023-02-15T16:02:21.052Z,10.44
2023-02-15T16:04:49.688Z,10.35
2023-02-15T16:07:28.765Z,10.25
2023-02-15T16:09:59.256Z,10.16
2023-02-15T16:12:29.424Z,10.19
2023-02-15T16:15:04.528Z,10.16
2023-02-15T16:17:34.616Z,10.13
2023-02-15T16:20:07.180Z,10.04
2023-02-15T16:22:41.133Z,9.99
2023-02-15T16:25:43.083Z,9.88
2023-02-15T16:28:14.384Z,9.82
2023-02-15T16:30:45.406Z,9.70
2023-02-15T16:33:15.857Z,9.67
2023-02-15T16:35:56.638Z,9.68
2023-02-15T16:38:46.567Z,9.67
2023-02-15T16:41:17.321Z,9.59
2023-02-15T16:43:50.941Z,9.54
2023-02-15T16:46:28.535Z,9.44
2023-02-15T16:48:59.776Z,9.27
2023-02-15T16:51:32.193Z,9.09
2023-02-15T16:54:09.132Z,9.06
2023-02-15T16:56:38.290Z,9.07
2023-02-15T16:59:06.593Z,9.07
2023-02-15T17:01:35.542Z,9.10
2023-02-15T17:04:14.187Z,9.09
2023-02-15T17:06:42.829Z,9.08
2023-02-15T17:09:20.569Z,8.98
2023-02-15T17:11:48.896Z,8.91
2023-02-15T17:14:23.943Z,8.91
2023-02-15T17:16:54.681Z,8.88
2023-02-15T17:19:27.171Z,8.77
2023-02-15T17:21:57.397Z,8.81
2023-02-15T17:24:37.042Z,8.80
2023-02-15T17:27:12.646Z,8.83
2023-02-15T17:29:48.092Z,8.86
2023-02-15T17:32:20.099Z,8.77
2023-02-15T17:35:01.097Z,8.67
2023-02-15T17:37:45.225Z,8.71
2023-02-15T17:40:22.242Z,8.68
2023-02-15T17:42:52.510Z,8.64
2023-02-15T17:45:23.175Z,8.62
2023-02-15T17:47:52.212Z,8.66
2023-02-15T17:50:23.465Z,8.77
2023-02-15T17:52:52.964Z,8.70
2023-02-15T17:55:39.057Z,8.68
2023-02-15T17:58:09.879Z,8.56
2023-02-15T18:00:59.623Z,8.45
2023-02-15T18:03:53.610Z,8.47
2023-02-15T18:06:39.364Z,8.49
2023-02-15T18:09:25.422Z,8.45
2023-02-15T18:11:55.440Z,8.42
2023-02-15T18:14:23.795Z,8.41
2023-02-15T18:16:52.486Z,8.37
2023-02-15T18:19:23.227Z,8.28
2023-02-15T18:21:52.786Z,8.19
2023-02-15T18:24:24.253Z,8.14
2023-02-15T18:26:54.947Z,8.14
2023-02-15T18:29:23.319Z,8.11
2023-02-15T18:31:55.989Z,8.12
2023-02-15T18:34:28.542Z,8.07
2023-02-15T18:36:58.410Z,8.00
2023-02-15T18:39:31.293Z,7.98
2023-02-15T18:42:01.641Z,7.88
2023-02-15T18:44:33.069Z,8.00
2023-02-15T18:47:01.416Z,7.98
2023-02-15T18:49:29.787Z,8.03
2023-02-15T18:51:58.055Z,8.07
2023-02-15T18:54:28.924Z,8.02
2023-02-15T18:57:00.109Z,8.07
2023-02-15T18:59:31.202Z,8.06
2023-02-15T19:02:13.722Z,7.97
2023-02-15T19:04:42.918Z,7.90
2023-02-15T19:07:23.142Z,7.88
2023-02-15T19:09:59.932Z,7.92
2023-02-15T19:12:29.644Z,7.93
2023-02-15T19:15:22.221Z,7.90
2023-02-15T19:18:17.020Z,7.84
2023-02-15T19:20:46.993Z,7.73
2023-02-15T19:23:20.091Z,7.63
2023-02-15T19:25:49.494Z,7.64
2023-02-15T19:28:20.111Z,7.58
2023-02-15T19:30:49.825Z,7.63
2023-02-15T19:33:21.290Z,7.64
2023-02-15T19:35:54.209Z,7.59
2023-02-15T19:38:25.408Z,7.60
2023-02-15T19:41:01.068Z,7.58
2023-02-15T19:43:30.196Z,7.61
2023-02-15T19:45:59.973Z,7.52
2023-02-15T19:48:28.308Z,7.50
2023-02-15T19:50:56.979Z,7.46
2023-02-15T19:53:27.579Z,7.45
2023-02-15T19:56:21.219Z,7.40
2023-02-15T19:58:52.774Z,7.46
2023-02-15T20:01:23.296Z,7.48
2023-02-15T20:03:52.059Z,7.37
2023-02-15T20:06:33.913Z,7.31
2023-02-15T20:09:02.200Z,7.32
2023-02-15T20:11:30.622Z,7.26
2023-02-15T20:13:58.903Z,7.16
2023-02-15T20:16:31.461Z,7.15
2023-02-15T20:18:59.934Z,7.16
2023-02-15T20:21:28.265Z,7.09
2023-02-15T20:23:56.611Z,6.97
2023-02-15T20:26:29.759Z,6.93
2023-02-15T20:29:06.967Z,6.80
2023-02-15T20:31:36.727Z,6.74
2023-02-15T20:34:15.628Z,6.79
2023-02-15T20:36:44.029Z,6.82
2023-02-15T20:39:16.569Z,6.88
2023-02-15T20:41:48.261Z,6.83
2023-02-15T20:44:29.898Z,6.71
2023-02-15T20:47:01.678Z,6.63
2023-02-15T20:49:57.542Z,6.54
2023-02-15T20:52:25.810Z,6.63
2023-02-15T20:54:54.128Z,6.49
2023-02-15T20:57:29.689Z,6.52
2023-02-15T21:00:00.329Z,6.49
2023-02-15T21:02:30.104Z,6.44
2023-02-15T21:05:30.884Z,6.39
2023-02-15T21:07:59.895Z,6.25
2023-02-15T21:10:30.471Z,6.30
2023-02-15T21:13:01.550Z,6.39
2023-02-15T21:15:32.780Z,6.38
2023-02-15T21:18:04.280Z,6.36
2023-02-15T21:20:34.463Z,6.38
2023-02-15T21:23:05.919Z,6.49
2023-02-15T21:25:37.216Z,6.53
2023-02-15T21:28:08.529Z,6.42
2023-02-15T21:30:36.886Z,6.40
2023-02-15T21:33:06.711Z,6.49
2023-02-15T21:35:38.399Z,6.42
2023-02-15T21:38:07.947Z,6.42
2023-02-15T21:40:36.251Z,6.37
2023-02-15T21:43:32.271Z,6.35
2023-02-15T21:46:24.153Z,6.28
2023-02-15T21:48:53.744Z,6.31
2023-02-15T21:51:42.384Z,6.33
2023-02-15T21:54:28.592Z,6.24
2023-02-15T21:56:57.140Z,6.23
2023-02-15T21:59:28.564Z,6.20
2023-02-15T22:01:57.047Z,6.08
2023-02-15T22:04:29.278Z,6.08
2023-02-15T22:06:58.084Z,6.02
2023-02-15T22:09:28.023Z,6.12
2023-02-15T22:11:56.636Z,6.10
2023-02-15T22:14:37.967Z,6.08
2023-02-15T22:17:15.956Z,5.98
2023-02-15T22:19:47.239Z,6.04
2023-02-15T22:22:16.231Z,5.95
2023-02-15T22:24:45.742Z,5.89
2023-02-15T22:27:19.791Z,5.94
2023-02-15T22:29:48.702Z,6.00
2023-02-15T22:32:19.224Z,5.99
2023-02-15T22:34:48.960Z,5.92
2023-02-15T22:37:17.323Z,5.97
2023-02-15T22:39:45.556Z,5.96
2023-02-15T22:42:24.563Z,6.01
2023-02-15T22:44:57.339Z,6.02
2023-02-15T22:47:27.814Z,5.99
2023-02-15T22:49:57.405Z,5.92
2023-02-15T22:52:26.053Z,5.86
2023-02-15T22:54:54.272Z,5.89
2023-02-15T22:57:30.212Z,5.84
2023-02-15T22:59:59.408Z,5.78
2023-02-15T23:02:28.070Z,5.72
2023-02-15T23:04:57.701Z,5.68
2023-02-15T23:07:26.058Z,5.64
2023-02-15T23:09:54.308Z,5.61
2023-02-15T23:12:27.482Z,5.56
2023-02-15T23:14:56.604Z,5.52
2023-02-15T23:17:24.823Z,5.49
2023-02-15T23:19:53.052Z,5.46
2023-02-15T23:22:22.685Z,5.39
2023-02-15T23:24:53.720Z,5.37
2023-02-15T23:27:39.354Z,5.36
2023-02-15T23:30:14.124Z,5.31
2023-02-15T23:32:42.472Z,5.31
2023-02-15T23:35:15.246Z,5.26
2023-02-15T23:37:44.872Z,5.32
2023-02-15T23:40:32.776Z,5.35
2023-02-15T23:43:01.097Z,5.30
2023-02-15T23:45:29.726Z,5.24
2023-02-15T23:48:15.804Z,5.24
2023-02-15T23:50:44.083Z,5.18
2023-02-15T23:53:13.652Z,5.17
2023-02-15T23:55:44.492Z,5.12
2023-02-15T23:58:17.192Z,5.17
